sensor_id;sensor_type;location;lat;lon;timestamp;P1;durP1;ratioP1;P2;durP2;ratioP2
21758;SDS011;11041;50.854;20.580;2022-07-01T00:00:00;24.80;;;22.58;;
21758;SDS011;11041;50.854;20.580;2022-07-01T00:02:47;26.17;;;23.45;;
21758;SDS011;11041;50.854;20.580;2022-07-01T00:05:14;24.83;;;22.40;;
21758;SDS011;11041;50.854;20.580;2022-07-01T00:07:40;24.38;;;21.88;;
21758;SDS011;11041;50.854;20.580;2022-07-01T00:10:07;28.48;;;23.08;;
21758;SDS011;11041;50.854;20.580;2022-07-01T00:12:34;28.27;;;23.35;;
21758;SDS011;11041;50.854;20.580;2022-07-01T00:15:00;26.33;;;22.70;;
21758;SDS011;11041;50.854;20.580;2022-07-01T00:17:27;23.83;;;21.25;;
21758;SDS011;11041;50.854;20.580;2022-07-01T00:19:53;24.38;;;20.27;;
21758;SDS011;11041;50.854;20.580;2022-07-01T00:22:20;25.33;;;21.60;;
21758;SDS011;11041;50.854;20.580;2022-07-01T00:24:46;23.70;;;21.20;;
21758;SDS011;11041;50.854;20.580;2022-07-01T00:27:17;25.42;;;22.65;;
21758;SDS011;11041;50.854;20.580;2022-07-01T00:29:43;24.98;;;22.55;;
21758;SDS011;11041;50.854;20.580;2022-07-01T00:32:10;24.15;;;21.85;;
21758;SDS011;11041;50.854;20.580;2022-07-01T00:34:36;26.10;;;23.40;;
21758;SDS011;11041;50.854;20.580;2022-07-01T00:37:03;25.65;;;23.30;;
21758;SDS011;11041;50.854;20.580;2022-07-01T00:39:29;26.15;;;22.92;;
21758;SDS011;11041;50.854;20.580;2022-07-01T00:42:00;26.20;;;23.25;;
21758;SDS011;11041;50.854;20.580;2022-07-01T00:44:27;26.98;;;24.25;;
21758;SDS011;11041;50.854;20.580;2022-07-01T00:46:54;26.60;;;23.95;;
21758;SDS011;11041;50.854;20.580;2022-07-01T00:49:23;25.38;;;22.88;;
21758;SDS011;11041;50.854;20.580;2022-07-01T00:51:52;24.90;;;22.35;;
21758;SDS011;11041;50.854;20.580;2022-07-01T00:54:19;24.20;;;21.73;;
21758;SDS011;11041;50.854;20.580;2022-07-01T00:56:47;25.10;;;22.60;;
21758;SDS011;11041;50.854;20.580;2022-07-01T00:59:14;24.63;;;22.25;;
21758;SDS011;11041;50.854;20.580;2022-07-01T01:01:41;24.05;;;21.85;;
21758;SDS011;11041;50.854;20.580;2022-07-01T01:04:07;25.77;;;23.20;;
21758;SDS011;11041;50.854;20.580;2022-07-01T01:06:34;23.55;;;21.35;;
21758;SDS011;11041;50.854;20.580;2022-07-01T01:09:01;25.63;;;21.55;;
21758;SDS011;11041;50.854;20.580;2022-07-01T01:11:28;23.48;;;21.02;;
21758;SDS011;11041;50.854;20.580;2022-07-01T01:13:57;23.85;;;21.50;;
21758;SDS011;11041;50.854;20.580;2022-07-01T01:16:24;25.65;;;22.85;;
21758;SDS011;11041;50.854;20.580;2022-07-01T01:18:51;24.15;;;21.77;;
21758;SDS011;11041;50.854;20.580;2022-07-01T01:21:18;24.63;;;22.15;;
21758;SDS011;11041;50.854;20.580;2022-07-01T01:23:45;25.50;;;23.08;;
21758;SDS011;11041;50.854;20.580;2022-07-01T01:26:16;25.30;;;22.95;;
21758;SDS011;11041;50.854;20.580;2022-07-01T01:28:46;25.90;;;22.90;;
21758;SDS011;11041;50.854;20.580;2022-07-01T01:31:14;24.50;;;22.13;;
21758;SDS011;11041;50.854;20.580;2022-07-01T01:33:42;25.85;;;23.08;;
21758;SDS011;11041;50.854;20.580;2022-07-01T01:36:09;24.60;;;22.10;;
21758;SDS011;11041;50.854;20.580;2022-07-01T01:38:35;26.67;;;23.98;;
21758;SDS011;11041;50.854;20.580;2022-07-01T01:41:03;26.90;;;22.88;;
21758;SDS011;11041;50.854;20.580;2022-07-01T01:43:30;29.30;;;23.88;;
21758;SDS011;11041;50.854;20.580;2022-07-01T01:46:00;25.77;;;23.15;;
21758;SDS011;11041;50.854;20.580;2022-07-01T01:48:29;23.30;;;20.80;;
21758;SDS011;11041;50.854;20.580;2022-07-01T01:50:57;23.85;;;21.60;;
21758;SDS011;11041;50.854;20.580;2022-07-01T01:53:23;23.70;;;21.55;;
21758;SDS011;11041;50.854;20.580;2022-07-01T01:55:50;23.73;;;21.33;;
21758;SDS011;11041;50.854;20.580;2022-07-01T01:58:17;23.85;;;21.52;;
21758;SDS011;11041;50.854;20.580;2022-07-01T02:00:43;22.42;;;19.58;;
21758;SDS011;11041;50.854;20.580;2022-07-01T02:03:10;23.63;;;21.27;;
21758;SDS011;11041;50.854;20.580;2022-07-01T02:05:37;24.73;;;22.15;;
21758;SDS011;11041;50.854;20.580;2022-07-01T02:08:03;23.73;;;21.30;;
21758;SDS011;11041;50.854;20.580;2022-07-01T02:10:30;23.45;;;21.20;;
21758;SDS011;11041;50.854;20.580;2022-07-01T02:12:57;22.60;;;20.60;;
21758;SDS011;11041;50.854;20.580;2022-07-01T02:15:23;24.92;;;20.67;;
21758;SDS011;11041;50.854;20.580;2022-07-01T02:17:50;23.40;;;20.95;;
21758;SDS011;11041;50.854;20.580;2022-07-01T02:20:17;24.45;;;20.92;;
21758;SDS011;11041;50.854;20.580;2022-07-01T02:22:43;22.98;;;20.67;;
21758;SDS011;11041;50.854;20.580;2022-07-01T02:25:10;24.20;;;20.75;;
21758;SDS011;11041;50.854;20.580;2022-07-01T02:27:36;23.30;;;20.98;;
21758;SDS011;11041;50.854;20.580;2022-07-01T02:30:04;23.75;;;21.45;;
21758;SDS011;11041;50.854;20.580;2022-07-01T02:32:31;24.15;;;21.95;;
21758;SDS011;11041;50.854;20.580;2022-07-01T02:34:58;23.30;;;21.20;;
21758;SDS011;11041;50.854;20.580;2022-07-01T02:37:25;23.38;;;21.10;;
21758;SDS011;11041;50.854;20.580;2022-07-01T02:39:52;23.27;;;21.05;;
21758;SDS011;11041;50.854;20.580;2022-07-01T02:42:19;26.10;;;21.55;;
21758;SDS011;11041;50.854;20.580;2022-07-01T02:45:04;25.02;;;22.70;;
21758;SDS011;11041;50.854;20.580;2022-07-01T02:47:34;26.08;;;22.52;;
21758;SDS011;11041;50.854;20.580;2022-07-01T02:50:03;23.77;;;21.63;;
21758;SDS011;11041;50.854;20.580;2022-07-01T02:52:33;25.95;;;23.38;;
21758;SDS011;11041;50.854;20.580;2022-07-01T02:55:06;24.45;;;22.27;;
21758;SDS011;11041;50.854;20.580;2022-07-01T02:57:36;24.17;;;21.77;;
21758;SDS011;11041;50.854;20.580;2022-07-01T03:00:05;24.45;;;22.15;;
21758;SDS011;11041;50.854;20.580;2022-07-01T03:02:39;24.80;;;22.50;;
21758;SDS011;11041;50.854;20.580;2022-07-01T03:05:06;26.40;;;24.00;;
21758;SDS011;11041;50.854;20.580;2022-07-01T03:07:34;25.17;;;22.67;;
21758;SDS011;11041;50.854;20.580;2022-07-01T03:10:01;25.38;;;22.98;;
21758;SDS011;11041;50.854;20.580;2022-07-01T03:12:32;26.77;;;24.05;;
21758;SDS011;11041;50.854;20.580;2022-07-01T03:15:05;24.83;;;22.23;;
21758;SDS011;11041;50.854;20.580;2022-07-01T03:17:35;25.70;;;23.08;;
21758;SDS011;11041;50.854;20.580;2022-07-01T03:20:05;24.75;;;22.35;;
21758;SDS011;11041;50.854;20.580;2022-07-01T03:22:36;26.08;;;23.67;;
21758;SDS011;11041;50.854;20.580;2022-07-01T03:25:04;25.63;;;23.00;;
21758;SDS011;11041;50.854;20.580;2022-07-01T03:27:32;24.75;;;22.15;;
21758;SDS011;11041;50.854;20.580;2022-07-01T03:30:00;23.27;;;20.83;;
21758;SDS011;11041;50.854;20.580;2022-07-01T03:32:31;28.50;;;23.65;;
21758;SDS011;11041;50.854;20.580;2022-07-01T03:34:59;26.02;;;23.60;;
21758;SDS011;11041;50.854;20.580;2022-07-01T03:37:26;23.92;;;21.50;;
21758;SDS011;11041;50.854;20.580;2022-07-01T03:39:52;24.25;;;22.00;;
21758;SDS011;11041;50.854;20.580;2022-07-01T03:42:18;26.02;;;23.27;;
21758;SDS011;11041;50.854;20.580;2022-07-01T03:44:45;24.88;;;22.42;;
21758;SDS011;11041;50.854;20.580;2022-07-01T03:47:12;24.85;;;22.50;;
21758;SDS011;11041;50.854;20.580;2022-07-01T03:49:39;24.98;;;22.67;;
21758;SDS011;11041;50.854;20.580;2022-07-01T03:52:05;27.75;;;22.70;;
21758;SDS011;11041;50.854;20.580;2022-07-01T03:54:32;24.60;;;22.05;;
21758;SDS011;11041;50.854;20.580;2022-07-01T03:57:03;23.20;;;20.95;;
21758;SDS011;11041;50.854;20.580;2022-07-01T03:59:35;25.83;;;23.40;;
21758;SDS011;11041;50.854;20.580;2022-07-01T04:02:03;27.27;;;24.50;;
21758;SDS011;11041;50.854;20.580;2022-07-01T04:04:31;25.60;;;22.92;;
21758;SDS011;11041;50.854;20.580;2022-07-01T04:07:00;24.90;;;22.38;;
21758;SDS011;11041;50.854;20.580;2022-07-01T04:09:31;26.05;;;23.45;;
21758;SDS011;11041;50.854;20.580;2022-07-01T04:11:58;23.83;;;21.63;;
21758;SDS011;11041;50.854;20.580;2022-07-01T04:14:25;24.30;;;21.98;;
21758;SDS011;11041;50.854;20.580;2022-07-01T04:16:51;24.67;;;22.30;;
21758;SDS011;11041;50.854;20.580;2022-07-01T04:19:18;22.55;;;20.20;;
21758;SDS011;11041;50.854;20.580;2022-07-01T04:21:46;23.30;;;21.27;;
21758;SDS011;11041;50.854;20.580;2022-07-01T04:24:31;23.83;;;21.30;;
21758;SDS011;11041;50.854;20.580;2022-07-01T04:26:59;23.73;;;21.23;;
21758;SDS011;11041;50.854;20.580;2022-07-01T04:29:26;22.88;;;20.30;;
21758;SDS011;11041;50.854;20.580;2022-07-01T04:31:57;23.23;;;20.45;;
21758;SDS011;11041;50.854;20.580;2022-07-01T04:34:25;19.77;;;17.77;;
21758;SDS011;11041;50.854;20.580;2022-07-01T04:36:51;20.90;;;18.80;;
21758;SDS011;11041;50.854;20.580;2022-07-01T04:39:18;24.23;;;18.33;;
21758;SDS011;11041;50.854;20.580;2022-07-01T04:41:46;20.02;;;17.92;;
21758;SDS011;11041;50.854;20.580;2022-07-01T04:44:24;21.77;;;18.38;;
21758;SDS011;11041;50.854;20.580;2022-07-01T04:46:59;20.98;;;18.77;;
21758;SDS011;11041;50.854;20.580;2022-07-01T04:49:28;22.55;;;19.63;;
21758;SDS011;11041;50.854;20.580;2022-07-01T04:51:55;19.58;;;17.55;;
21758;SDS011;11041;50.854;20.580;2022-07-01T04:54:24;19.80;;;17.65;;
21758;SDS011;11041;50.854;20.580;2022-07-01T04:56:51;24.40;;;18.33;;
21758;SDS011;11041;50.854;20.580;2022-07-01T04:59:18;20.00;;;17.83;;
21758;SDS011;11041;50.854;20.580;2022-07-01T05:01:46;20.60;;;18.48;;
21758;SDS011;11041;50.854;20.580;2022-07-01T05:04:16;19.75;;;17.65;;
21758;SDS011;11041;50.854;20.580;2022-07-01T05:06:44;26.38;;;18.48;;
21758;SDS011;11041;50.854;20.580;2022-07-01T05:09:12;18.48;;;16.65;;
21758;SDS011;11041;50.854;20.580;2022-07-01T05:11:38;21.10;;;17.75;;
21758;SDS011;11041;50.854;20.580;2022-07-01T05:14:05;19.98;;;16.83;;
21758;SDS011;11041;50.854;20.580;2022-07-01T05:16:34;19.50;;;17.45;;
21758;SDS011;11041;50.854;20.580;2022-07-01T05:19:01;22.20;;;17.05;;
21758;SDS011;11041;50.854;20.580;2022-07-01T05:21:48;18.20;;;16.58;;
21758;SDS011;11041;50.854;20.580;2022-07-01T05:24:33;19.70;;;17.70;;
21758;SDS011;11041;50.854;20.580;2022-07-01T05:27:00;19.65;;;17.17;;
21758;SDS011;11041;50.854;20.580;2022-07-01T05:29:28;20.20;;;16.65;;
21758;SDS011;11041;50.854;20.580;2022-07-01T05:31:56;21.17;;;16.77;;
21758;SDS011;11041;50.854;20.580;2022-07-01T05:34:22;17.15;;;15.32;;
21758;SDS011;11041;50.854;20.580;2022-07-01T05:36:49;19.38;;;17.23;;
21758;SDS011;11041;50.854;20.580;2022-07-01T05:39:15;18.40;;;16.52;;
21758;SDS011;11041;50.854;20.580;2022-07-01T05:41:42;18.83;;;16.05;;
21758;SDS011;11041;50.854;20.580;2022-07-01T05:44:09;20.17;;;16.90;;
21758;SDS011;11041;50.854;20.580;2022-07-01T05:46:36;19.83;;;16.92;;
21758;SDS011;11041;50.854;20.580;2022-07-01T05:49:02;20.60;;;17.10;;
21758;SDS011;11041;50.854;20.580;2022-07-01T05:51:29;16.52;;;15.00;;
21758;SDS011;11041;50.854;20.580;2022-07-01T05:53:55;17.27;;;15.45;;
21758;SDS011;11041;50.854;20.580;2022-07-01T05:56:22;17.75;;;15.85;;
21758;SDS011;11041;50.854;20.580;2022-07-01T05:58:49;16.73;;;15.13;;
21758;SDS011;11041;50.854;20.580;2022-07-01T06:01:16;15.52;;;14.20;;
21758;SDS011;11041;50.854;20.580;2022-07-01T06:03:42;16.52;;;13.13;;
21758;SDS011;11041;50.854;20.580;2022-07-01T06:06:09;14.30;;;13.00;;
21758;SDS011;11041;50.854;20.580;2022-07-01T06:08:35;14.55;;;13.20;;
21758;SDS011;11041;50.854;20.580;2022-07-01T06:11:02;14.43;;;12.98;;
21758;SDS011;11041;50.854;20.580;2022-07-01T06:13:30;15.07;;;13.65;;
21758;SDS011;11041;50.854;20.580;2022-07-01T06:15:56;14.43;;;13.10;;
21758;SDS011;11041;50.854;20.580;2022-07-01T06:18:24;15.95;;;14.00;;
21758;SDS011;11041;50.854;20.580;2022-07-01T06:20:51;15.18;;;13.77;;
21758;SDS011;11041;50.854;20.580;2022-07-01T06:23:17;15.45;;;13.70;;
21758;SDS011;11041;50.854;20.580;2022-07-01T06:25:44;17.42;;;14.05;;
21758;SDS011;11041;50.854;20.580;2022-07-01T06:28:10;14.75;;;13.00;;
21758;SDS011;11041;50.854;20.580;2022-07-01T06:30:37;14.13;;;12.68;;
21758;SDS011;11041;50.854;20.580;2022-07-01T06:33:08;14.43;;;13.10;;
21758;SDS011;11041;50.854;20.580;2022-07-01T06:35:37;15.18;;;13.75;;
21758;SDS011;11041;50.854;20.580;2022-07-01T06:38:05;14.00;;;12.73;;
21758;SDS011;11041;50.854;20.580;2022-07-01T06:40:32;14.15;;;12.85;;
21758;SDS011;11041;50.854;20.580;2022-07-01T06:42:59;15.73;;;12.65;;
21758;SDS011;11041;50.854;20.580;2022-07-01T06:45:25;13.95;;;12.60;;
21758;SDS011;11041;50.854;20.580;2022-07-01T06:47:52;14.35;;;12.73;;
21758;SDS011;11041;50.854;20.580;2022-07-01T06:50:18;14.63;;;13.27;;
21758;SDS011;11041;50.854;20.580;2022-07-01T06:52:48;12.45;;;10.95;;
21758;SDS011;11041;50.854;20.580;2022-07-01T06:55:20;13.18;;;11.98;;
21758;SDS011;11041;50.854;20.580;2022-07-01T06:57:47;14.90;;;11.70;;
21758;SDS011;11041;50.854;20.580;2022-07-01T07:00:16;13.00;;;11.70;;
21758;SDS011;11041;50.854;20.580;2022-07-01T07:02:43;12.60;;;11.48;;
21758;SDS011;11041;50.854;20.580;2022-07-01T07:05:09;12.38;;;11.10;;
21758;SDS011;11041;50.854;20.580;2022-07-01T07:07:36;12.45;;;11.25;;
21758;SDS011;11041;50.854;20.580;2022-07-01T07:10:03;11.75;;;10.68;;
21758;SDS011;11041;50.854;20.580;2022-07-01T07:12:30;13.70;;;11.15;;
21758;SDS011;11041;50.854;20.580;2022-07-01T07:14:56;12.20;;;11.00;;
21758;SDS011;11041;50.854;20.580;2022-07-01T07:17:23;13.15;;;10.43;;
21758;SDS011;11041;50.854;20.580;2022-07-01T07:19:49;12.52;;;10.50;;
21758;SDS011;11041;50.854;20.580;2022-07-01T07:22:17;14.82;;;10.73;;
21758;SDS011;11041;50.854;20.580;2022-07-01T07:24:43;12.82;;;10.90;;
21758;SDS011;11041;50.854;20.580;2022-07-01T07:27:10;13.80;;;10.20;;
21758;SDS011;11041;50.854;20.580;2022-07-01T07:29:36;11.35;;;10.20;;
21758;SDS011;11041;50.854;20.580;2022-07-01T07:32:03;12.55;;;9.52;;
21758;SDS011;11041;50.854;20.580;2022-07-01T07:34:29;11.05;;;9.63;;
21758;SDS011;11041;50.854;20.580;2022-07-01T07:36:57;12.98;;;9.75;;
21758;SDS011;11041;50.854;20.580;2022-07-01T07:39:24;10.80;;;9.90;;
21758;SDS011;11041;50.854;20.580;2022-07-01T07:41:50;10.40;;;9.55;;
21758;SDS011;11041;50.854;20.580;2022-07-01T07:44:16;13.75;;;10.35;;
21758;SDS011;11041;50.854;20.580;2022-07-01T07:46:43;11.60;;;10.35;;
21758;SDS011;11041;50.854;20.580;2022-07-01T07:49:09;10.80;;;9.70;;
21758;SDS011;11041;50.854;20.580;2022-07-01T07:51:36;10.70;;;9.57;;
21758;SDS011;11041;50.854;20.580;2022-07-01T07:54:02;11.85;;;9.82;;
21758;SDS011;11041;50.854;20.580;2022-07-01T07:56:29;11.07;;;9.43;;
21758;SDS011;11041;50.854;20.580;2022-07-01T07:58:57;12.38;;;9.70;;
21758;SDS011;11041;50.854;20.580;2022-07-01T08:01:24;10.13;;;9.32;;
21758;SDS011;11041;50.854;20.580;2022-07-01T08:03:51;10.82;;;9.82;;
21758;SDS011;11041;50.854;20.580;2022-07-01T08:06:17;9.02;;;8.27;;
21758;SDS011;11041;50.854;20.580;2022-07-01T08:08:44;9.88;;;8.88;;
21758;SDS011;11041;50.854;20.580;2022-07-01T08:11:12;9.65;;;8.75;;
21758;SDS011;11041;50.854;20.580;2022-07-01T08:13:38;11.95;;;9.23;;
21758;SDS011;11041;50.854;20.580;2022-07-01T08:16:05;9.40;;;8.60;;
21758;SDS011;11041;50.854;20.580;2022-07-01T08:18:33;8.48;;;7.82;;
21758;SDS011;11041;50.854;20.580;2022-07-01T08:20:59;9.35;;;8.35;;
21758;SDS011;11041;50.854;20.580;2022-07-01T08:23:26;8.95;;;7.22;;
21758;SDS011;11041;50.854;20.580;2022-07-01T08:25:52;9.85;;;8.02;;
21758;SDS011;11041;50.854;20.580;2022-07-01T08:28:19;7.72;;;7.05;;
21758;SDS011;11041;50.854;20.580;2022-07-01T08:30:46;10.57;;;7.88;;
21758;SDS011;11041;50.854;20.580;2022-07-01T08:33:13;8.50;;;7.57;;
21758;SDS011;11041;50.854;20.580;2022-07-01T08:35:39;8.65;;;7.78;;
21758;SDS011;11041;50.854;20.580;2022-07-01T08:38:06;11.50;;;8.05;;
21758;SDS011;11041;50.854;20.580;2022-07-01T08:40:33;10.05;;;7.93;;
21758;SDS011;11041;50.854;20.580;2022-07-01T08:43:03;8.55;;;7.82;;
21758;SDS011;11041;50.854;20.580;2022-07-01T08:45:33;8.20;;;7.40;;
21758;SDS011;11041;50.854;20.580;2022-07-01T08:48:01;8.93;;;8.02;;
21758;SDS011;11041;50.854;20.580;2022-07-01T08:50:36;8.57;;;7.78;;
21758;SDS011;11041;50.854;20.580;2022-07-01T08:53:05;9.07;;;8.07;;
21758;SDS011;11041;50.854;20.580;2022-07-01T08:55:35;8.50;;;7.53;;
21758;SDS011;11041;50.854;20.580;2022-07-01T08:58:23;11.35;;;8.57;;
21758;SDS011;11041;50.854;20.580;2022-07-01T09:00:52;11.07;;;8.57;;
21758;SDS011;11041;50.854;20.580;2022-07-01T09:03:22;10.85;;;8.40;;
21758;SDS011;11041;50.854;20.580;2022-07-01T09:05:50;10.13;;;8.50;;
21758;SDS011;11041;50.854;20.580;2022-07-01T09:08:18;8.68;;;7.88;;
21758;SDS011;11041;50.854;20.580;2022-07-01T09:10:45;10.40;;;7.95;;
21758;SDS011;11041;50.854;20.580;2022-07-01T09:13:12;13.63;;;8.55;;
21758;SDS011;11041;50.854;20.580;2022-07-01T09:15:40;8.65;;;7.95;;
21758;SDS011;11041;50.854;20.580;2022-07-01T09:18:15;9.20;;;8.30;;
21758;SDS011;11041;50.854;20.580;2022-07-01T09:20:46;9.02;;;8.23;;
21758;SDS011;11041;50.854;20.580;2022-07-01T09:23:14;9.18;;;8.32;;
21758;SDS011;11041;50.854;20.580;2022-07-01T09:25:45;8.88;;;8.15;;
21758;SDS011;11041;50.854;20.580;2022-07-01T09:28:15;9.15;;;8.20;;
21758;SDS011;11041;50.854;20.580;2022-07-01T09:30:44;8.27;;;7.55;;
21758;SDS011;11041;50.854;20.580;2022-07-01T09:33:15;9.02;;;7.80;;
21758;SDS011;11041;50.854;20.580;2022-07-01T09:35:47;10.15;;;8.68;;
21758;SDS011;11041;50.854;20.580;2022-07-01T09:38:18;8.80;;;8.05;;
21758;SDS011;11041;50.854;20.580;2022-07-01T09:43:18;7.63;;;6.82;;
21758;SDS011;11041;50.854;20.580;2022-07-01T09:45:57;8.18;;;7.38;;
21758;SDS011;11041;50.854;20.580;2022-07-01T09:51:07;9.75;;;7.70;;
21758;SDS011;11041;50.854;20.580;2022-07-01T09:53:35;8.13;;;7.32;;
21758;SDS011;11041;50.854;20.580;2022-07-01T09:56:03;8.13;;;7.15;;
21758;SDS011;11041;50.854;20.580;2022-07-01T09:58:30;8.23;;;7.43;;
21758;SDS011;11041;50.854;20.580;2022-07-01T10:00:58;9.20;;;6.90;;
21758;SDS011;11041;50.854;20.580;2022-07-01T10:03:25;7.75;;;7.05;;
21758;SDS011;11041;50.854;20.580;2022-07-01T10:05:57;8.20;;;7.38;;
21758;SDS011;11041;50.854;20.580;2022-07-01T10:14:16;8.43;;;7.57;;
21758;SDS011;11041;50.854;20.580;2022-07-01T10:16:46;8.57;;;7.72;;
21758;SDS011;11041;50.854;20.580;2022-07-01T10:19:25;9.45;;;8.48;;
21758;SDS011;11041;50.854;20.580;2022-07-01T10:21:56;8.13;;;7.30;;
21758;SDS011;11041;50.854;20.580;2022-07-01T10:24:46;8.30;;;6.95;;
21758;SDS011;11041;50.854;20.580;2022-07-01T10:27:20;8.35;;;7.55;;
21758;SDS011;11041;50.854;20.580;2022-07-01T10:30:11;9.90;;;7.25;;
21758;SDS011;11041;50.854;20.580;2022-07-01T10:32:48;9.55;;;7.55;;
21758;SDS011;11041;50.854;20.580;2022-07-01T10:35:17;8.38;;;6.88;;
21758;SDS011;11041;50.854;20.580;2022-07-01T10:37:59;8.20;;;7.28;;
21758;SDS011;11041;50.854;20.580;2022-07-01T10:40:39;9.15;;;8.25;;
21758;SDS011;11041;50.854;20.580;2022-07-01T10:43:11;8.40;;;7.70;;
21758;SDS011;11041;50.854;20.580;2022-07-01T10:45:57;9.60;;;7.50;;
21758;SDS011;11041;50.854;20.580;2022-07-01T10:48:24;8.20;;;5.53;;
21758;SDS011;11041;50.854;20.580;2022-07-01T10:50:51;10.48;;;5.63;;
21758;SDS011;11041;50.854;20.580;2022-07-01T10:53:19;6.30;;;5.70;;
21758;SDS011;11041;50.854;20.580;2022-07-01T10:55:53;8.00;;;6.47;;
21758;SDS011;11041;50.854;20.580;2022-07-01T10:58:40;8.75;;;7.70;;
21758;SDS011;11041;50.854;20.580;2022-07-01T11:01:08;8.02;;;7.32;;
21758;SDS011;11041;50.854;20.580;2022-07-01T11:03:35;8.15;;;7.35;;
21758;SDS011;11041;50.854;20.580;2022-07-01T11:06:05;7.75;;;7.05;;
21758;SDS011;11041;50.854;20.580;2022-07-01T11:08:32;8.20;;;7.07;;
21758;SDS011;11041;50.854;20.580;2022-07-01T11:10:59;8.68;;;7.78;;
21758;SDS011;11041;50.854;20.580;2022-07-01T11:13:29;8.68;;;7.70;;
21758;SDS011;11041;50.854;20.580;2022-07-01T11:15:58;8.50;;;7.80;;
21758;SDS011;11041;50.854;20.580;2022-07-01T11:18:26;8.50;;;7.80;;
21758;SDS011;11041;50.854;20.580;2022-07-01T11:21:01;10.07;;;7.60;;
21758;SDS011;11041;50.854;20.580;2022-07-01T11:23:34;8.32;;;7.38;;
21758;SDS011;11041;50.854;20.580;2022-07-01T11:26:01;8.55;;;7.22;;
21758;SDS011;11041;50.854;20.580;2022-07-01T11:28:28;8.40;;;7.60;;
21758;SDS011;11041;50.854;20.580;2022-07-01T11:30:58;9.82;;;7.47;;
21758;SDS011;11041;50.854;20.580;2022-07-01T11:33:26;8.25;;;7.45;;
21758;SDS011;11041;50.854;20.580;2022-07-01T11:35:52;8.82;;;8.05;;
21758;SDS011;11041;50.854;20.580;2022-07-01T11:38:37;10.65;;;8.40;;
21758;SDS011;11041;50.854;20.580;2022-07-01T11:41:23;8.40;;;7.40;;
21758;SDS011;11041;50.854;20.580;2022-07-01T11:43:52;9.68;;;7.50;;
21758;SDS011;11041;50.854;20.580;2022-07-01T11:46:19;9.02;;;7.80;;
21758;SDS011;11041;50.854;20.580;2022-07-01T11:48:48;9.10;;;8.15;;
21758;SDS011;11041;50.854;20.580;2022-07-01T11:51:18;10.95;;;8.35;;
21758;SDS011;11041;50.854;20.580;2022-07-01T11:53:52;8.65;;;7.85;;
21758;SDS011;11041;50.854;20.580;2022-07-01T11:56:28;9.70;;;8.15;;
21758;SDS011;11041;50.854;20.580;2022-07-01T11:58:59;11.57;;;8.27;;
21758;SDS011;11041;50.854;20.580;2022-07-01T12:01:28;10.13;;;8.50;;
21758;SDS011;11041;50.854;20.580;2022-07-01T12:04:01;9.05;;;8.25;;
21758;SDS011;11041;50.854;20.580;2022-07-01T12:06:30;9.95;;;7.53;;
21758;SDS011;11041;50.854;20.580;2022-07-01T12:08:58;9.73;;;7.82;;
21758;SDS011;11041;50.854;20.580;2022-07-01T12:11:27;9.80;;;8.75;;
21758;SDS011;11041;50.854;20.580;2022-07-01T12:13:55;9.15;;;7.97;;
21758;SDS011;11041;50.854;20.580;2022-07-01T12:16:22;9.18;;;8.32;;
21758;SDS011;11041;50.854;20.580;2022-07-01T12:21:27;10.45;;;8.25;;
21758;SDS011;11041;50.854;20.580;2022-07-01T12:24:06;9.07;;;8.23;;
21758;SDS011;11041;50.854;20.580;2022-07-01T12:26:46;9.43;;;8.45;;
21758;SDS011;11041;50.854;20.580;2022-07-01T12:29:51;8.82;;;7.93;;
21758;SDS011;11041;50.854;20.580;2022-07-01T12:34:50;9.43;;;7.72;;
21758;SDS011;11041;50.854;20.580;2022-07-01T12:40:41;9.45;;;7.90;;
21758;SDS011;11041;50.854;20.580;2022-07-01T12:43:21;9.00;;;7.90;;
21758;SDS011;11041;50.854;20.580;2022-07-01T12:45:59;8.23;;;7.63;;
21758;SDS011;11041;50.854;20.580;2022-07-01T12:48:27;8.93;;;7.65;;
21758;SDS011;11041;50.854;20.580;2022-07-01T12:50:57;8.73;;;7.82;;
21758;SDS011;11041;50.854;20.580;2022-07-01T12:53:24;9.77;;;7.93;;
21758;SDS011;11041;50.854;20.580;2022-07-01T12:55:55;8.23;;;7.43;;
21758;SDS011;11041;50.854;20.580;2022-07-01T12:58:24;11.32;;;7.50;;
21758;SDS011;11041;50.854;20.580;2022-07-01T13:00:53;8.73;;;7.30;;
21758;SDS011;11041;50.854;20.580;2022-07-01T13:03:26;7.05;;;6.32;;
21758;SDS011;11041;50.854;20.580;2022-07-01T13:05:54;7.95;;;6.65;;
21758;SDS011;11041;50.854;20.580;2022-07-01T13:08:22;7.05;;;6.35;;
21758;SDS011;11041;50.854;20.580;2022-07-01T13:10:49;7.70;;;6.15;;
21758;SDS011;11041;50.854;20.580;2022-07-01T13:13:16;8.95;;;6.05;;
21758;SDS011;11041;50.854;20.580;2022-07-01T13:15:43;6.90;;;6.32;;
21758;SDS011;11041;50.854;20.580;2022-07-01T13:18:10;7.82;;;6.80;;
21758;SDS011;11041;50.854;20.580;2022-07-01T13:20:39;9.13;;;6.53;;
21758;SDS011;11041;50.854;20.580;2022-07-01T13:23:07;8.07;;;5.95;;
21758;SDS011;11041;50.854;20.580;2022-07-01T13:25:34;6.03;;;5.43;;
21758;SDS011;11041;50.854;20.580;2022-07-01T13:28:00;6.57;;;5.85;;
21758;SDS011;11041;50.854;20.580;2022-07-01T13:30:27;7.63;;;5.38;;
21758;SDS011;11041;50.854;20.580;2022-07-01T13:32:53;6.93;;;5.78;;
21758;SDS011;11041;50.854;20.580;2022-07-01T13:35:21;7.45;;;6.20;;
21758;SDS011;11041;50.854;20.580;2022-07-01T13:37:49;8.52;;;6.28;;
21758;SDS011;11041;50.854;20.580;2022-07-01T13:40:18;8.18;;;6.28;;
21758;SDS011;11041;50.854;20.580;2022-07-01T13:42:45;7.72;;;5.93;;
21758;SDS011;11041;50.854;20.580;2022-07-01T13:45:12;7.18;;;6.50;;
21758;SDS011;11041;50.854;20.580;2022-07-01T13:47:39;11.05;;;6.30;;
21758;SDS011;11041;50.854;20.580;2022-07-01T13:50:07;10.35;;;6.32;;
21758;SDS011;11041;50.854;20.580;2022-07-01T13:52:34;9.15;;;6.53;;
21758;SDS011;11041;50.854;20.580;2022-07-01T13:55:01;9.00;;;6.05;;
21758;SDS011;11041;50.854;20.580;2022-07-01T13:57:27;8.85;;;6.30;;
21758;SDS011;11041;50.854;20.580;2022-07-01T13:59:54;7.60;;;6.35;;
21758;SDS011;11041;50.854;20.580;2022-07-01T14:02:22;8.52;;;6.53;;
21758;SDS011;11041;50.854;20.580;2022-07-01T14:04:48;8.00;;;6.57;;
21758;SDS011;11041;50.854;20.580;2022-07-01T14:07:15;11.02;;;6.47;;
21758;SDS011;11041;50.854;20.580;2022-07-01T14:09:42;7.90;;;5.60;;
21758;SDS011;11041;50.854;20.580;2022-07-01T14:12:09;6.70;;;5.70;;
21758;SDS011;11041;50.854;20.580;2022-07-01T14:14:37;6.80;;;5.90;;
21758;SDS011;11041;50.854;20.580;2022-07-01T14:17:04;6.63;;;4.95;;
21758;SDS011;11041;50.854;20.580;2022-07-01T14:19:30;7.72;;;5.30;;
21758;SDS011;11041;50.854;20.580;2022-07-01T14:21:58;9.48;;;5.40;;
21758;SDS011;11041;50.854;20.580;2022-07-01T14:24:25;6.57;;;5.75;;
21758;SDS011;11041;50.854;20.580;2022-07-01T14:26:52;7.95;;;5.80;;
21758;SDS011;11041;50.854;20.580;2022-07-01T14:29:19;7.50;;;6.32;;
21758;SDS011;11041;50.854;20.580;2022-07-01T14:31:46;8.77;;;6.05;;
21758;SDS011;11041;50.854;20.580;2022-07-01T14:34:13;9.70;;;5.82;;
21758;SDS011;11041;50.854;20.580;2022-07-01T14:36:40;9.50;;;5.47;;
21758;SDS011;11041;50.854;20.580;2022-07-01T14:39:06;10.27;;;5.85;;
21758;SDS011;11041;50.854;20.580;2022-07-01T14:41:33;12.75;;;5.97;;
21758;SDS011;11041;50.854;20.580;2022-07-01T14:44:00;6.28;;;5.68;;
21758;SDS011;11041;50.854;20.580;2022-07-01T14:46:27;6.82;;;6.15;;